Aviation Digital Data Service (ADDS)

Output produced by TAFs form (1434 UTC 10 December 2016)
found at http://www.aviationweather.gov/adds/tafs/
 
KMRB 101130Z 1012/1112 28010KT P6SM SCT140 
     FM101600 29010G17KT P6SM SCT110 
     FM110300 VRB03KT P6SM SCT140 
     FM110500 00000KT P6SM BKN110